createdAt,value
2022-10-23T00:02:02.354Z,100.00
2022-10-23T00:06:05.159Z,100.00
2022-10-23T00:10:06.870Z,100.00
2022-10-23T00:14:09.052Z,100.00
2022-10-23T00:18:10.473Z,100.00
2022-10-23T00:22:11.876Z,100.00
2022-10-23T00:26:17.164Z,100.00
2022-10-23T00:30:18.743Z,100.00
2022-10-23T00:34:20.138Z,100.00
2022-10-23T00:38:21.598Z,100.00
2022-10-23T00:42:23.613Z,100.00
2022-10-23T00:46:25.309Z,100.00
2022-10-23T00:50:28.762Z,100.00
2022-10-23T00:54:34.280Z,100.00
2022-10-23T00:58:35.685Z,100.00
2022-10-23T01:02:37.172Z,100.00
2022-10-23T01:06:57.431Z,100.00
2022-10-23T01:11:10.599Z,100.00
2022-10-23T01:15:34.652Z,100.00
2022-10-23T01:19:54.742Z,100.00
2022-10-23T01:24:02.113Z,100.00
2022-10-23T01:28:08.861Z,100.00
2022-10-23T01:32:16.648Z,100.00
2022-10-23T01:36:22.918Z,100.00
2022-10-23T01:40:29.177Z,100.00
2022-10-23T01:44:39.750Z,100.00
2022-10-23T01:48:45.949Z,100.00
2022-10-23T01:52:47.480Z,100.00
2022-10-23T01:56:51.314Z,100.00
2022-10-23T02:00:56.880Z,100.00
2022-10-23T02:05:23.158Z,100.00
2022-10-23T02:09:24.731Z,100.00
2022-10-23T02:13:38.289Z,100.00
2022-10-23T02:17:55.256Z,100.00
2022-10-23T02:22:10.331Z,100.00
2022-10-23T02:26:19.051Z,100.00
2022-10-23T02:30:21.366Z,100.00
2022-10-23T02:34:23.074Z,100.00
2022-10-23T02:38:42.110Z,100.00
2022-10-23T02:42:55.329Z,100.00
2022-10-23T02:47:16.345Z,100.00
2022-10-23T02:51:35.896Z,100.00
2022-10-23T02:55:45.754Z,100.00
2022-10-23T03:00:05.558Z,100.00
2022-10-23T03:04:09.914Z,100.00
2022-10-23T03:08:13.762Z,100.00
2022-10-23T03:12:15.152Z,100.00
2022-10-23T03:16:16.576Z,100.00
2022-10-23T03:20:18.250Z,100.00
2022-10-23T03:24:19.672Z,100.00
2022-10-23T03:28:21.045Z,100.00
2022-10-23T03:32:22.495Z,100.00
2022-10-23T03:36:23.925Z,100.00
2022-10-23T03:40:25.327Z,100.00
2022-10-23T03:44:27.076Z,100.00
2022-10-23T03:48:28.480Z,100.00
2022-10-23T03:52:29.907Z,100.00
2022-10-23T03:56:31.282Z,100.00
2022-10-23T04:00:32.798Z,100.00
2022-10-23T04:04:34.413Z,100.00
2022-10-23T04:08:36.035Z,100.00
2022-10-23T04:12:37.585Z,100.00
2022-10-23T04:16:39.220Z,100.00
2022-10-23T04:20:40.629Z,100.00
2022-10-23T04:24:46.521Z,100.00
2022-10-23T04:28:49.977Z,100.00
2022-10-23T04:32:51.790Z,100.00
2022-10-23T04:36:53.207Z,100.00
2022-10-23T04:40:54.594Z,100.00
2022-10-23T04:44:55.996Z,100.00
2022-10-23T04:48:57.421Z,100.00
2022-10-23T04:52:58.912Z,100.00
2022-10-23T04:57:00.300Z,100.00
2022-10-23T05:01:02.299Z,100.00
2022-10-23T05:05:04.259Z,100.00
2022-10-23T05:09:05.652Z,100.00
2022-10-23T05:13:07.612Z,100.00
2022-10-23T05:17:20.793Z,100.00
2022-10-23T05:21:26.941Z,100.00
2022-10-23T05:25:30.095Z,100.00
2022-10-23T05:29:31.489Z,100.00
2022-10-23T05:33:33.366Z,100.00
2022-10-23T05:37:37.172Z,100.00
2022-10-23T05:41:38.599Z,100.00
2022-10-23T05:45:40.004Z,100.00
2022-10-23T05:49:41.510Z,100.00
2022-10-23T05:53:42.915Z,100.00
2022-10-23T05:57:44.653Z,100.00
2022-10-23T06:01:46.478Z,100.00
2022-10-23T06:05:51.854Z,100.00
2022-10-23T06:09:54.265Z,100.00
2022-10-23T06:18:03.762Z,100.00
2022-10-23T06:22:05.323Z,100.00
2022-10-23T06:26:08.821Z,100.00
2022-10-23T06:30:10.688Z,100.00
2022-10-23T06:34:12.426Z,100.00
2022-10-23T06:38:14.426Z,100.00
2022-10-23T06:42:15.826Z,100.00
2022-10-23T06:46:18.783Z,100.00
2022-10-23T06:50:20.196Z,100.00
2022-10-23T06:54:21.588Z,100.00
2022-10-23T06:58:22.995Z,100.00
2022-10-23T07:02:24.391Z,100.00
2022-10-23T07:06:25.795Z,100.00
2022-10-23T07:10:27.377Z,100.00
2022-10-23T07:14:32.073Z,100.00
2022-10-23T07:22:39.870Z,100.00
2022-10-23T07:26:41.748Z,100.00
2022-10-23T07:30:43.267Z,100.00
2022-10-23T07:34:44.941Z,100.00
2022-10-23T07:38:46.401Z,100.00
2022-10-23T07:42:47.784Z,100.00
2022-10-23T07:46:49.174Z,100.00
2022-10-23T07:50:51.275Z,100.00
2022-10-23T07:54:53.020Z,100.00
2022-10-23T07:58:54.442Z,100.00
2022-10-23T08:02:55.909Z,100.00
2022-10-23T08:06:57.393Z,100.00
2022-10-23T08:10:58.798Z,100.00
2022-10-23T08:15:00.647Z,100.00
2022-10-23T08:19:02.868Z,100.00
2022-10-23T08:23:04.249Z,100.00
2022-10-23T08:27:05.852Z,100.00
2022-10-23T08:31:25.876Z,100.00
2022-10-23T08:35:27.188Z,100.00
2022-10-23T08:39:28.589Z,100.00
2022-10-23T08:43:41.538Z,100.00
2022-10-23T08:47:50.781Z,100.00
2022-10-23T08:51:55.774Z,100.00
2022-10-23T08:56:12.094Z,100.00
2022-10-23T09:00:15.889Z,100.00
2022-10-23T09:04:17.475Z,100.00
2022-10-23T09:08:44.541Z,100.00
2022-10-23T09:12:46.092Z,100.00
2022-10-23T09:16:58.245Z,100.00
2022-10-23T09:21:00.597Z,100.00
2022-10-23T09:25:03.255Z,100.00
2022-10-23T09:29:25.220Z,100.00
2022-10-23T09:33:28.310Z,100.00
2022-10-23T09:37:32.559Z,100.00
2022-10-23T09:41:37.193Z,100.00
2022-10-23T09:45:41.706Z,100.00
2022-10-23T09:49:48.925Z,100.00
2022-10-23T09:53:54.049Z,100.00
2022-10-23T09:57:55.819Z,100.00
2022-10-23T10:02:00.523Z,100.00
2022-10-23T10:06:04.403Z,100.00
2022-10-23T10:10:13.731Z,100.00
2022-10-23T10:14:27.248Z,100.00
2022-10-23T10:18:40.074Z,100.00
2022-10-23T10:22:56.231Z,100.00
2022-10-23T10:27:03.686Z,100.00
2022-10-23T10:31:13.638Z,100.00
2022-10-23T10:35:27.121Z,100.00
2022-10-23T10:39:40.777Z,100.00
2022-10-23T10:44:18.177Z,97.52
2022-10-23T10:48:46.628Z,98.84
2022-10-23T10:53:10.310Z,100.00
2022-10-23T10:57:31.123Z,99.72
2022-10-23T11:01:42.741Z,100.00
2022-10-23T11:05:51.254Z,97.45
2022-10-23T11:09:53.875Z,96.62
2022-10-23T11:13:55.651Z,94.44
2022-10-23T11:18:01.066Z,95.77
2022-10-23T11:22:43.007Z,94.72
2022-10-23T11:27:09.957Z,99.38
2022-10-23T11:31:22.596Z,95.22
2022-10-23T11:36:11.085Z,97.55
2022-10-23T11:40:24.401Z,99.90
2022-10-23T11:44:34.946Z,96.54
2022-10-23T11:48:39.041Z,97.01
2022-10-23T11:53:14.973Z,95.40
2022-10-23T11:57:17.788Z,100.00
2022-10-23T12:01:41.425Z,94.27
2022-10-23T12:05:45.190Z,93.72
2022-10-23T12:09:54.236Z,90.70
2022-10-23T12:13:55.862Z,88.78
2022-10-23T12:18:19.287Z,87.66
2022-10-23T12:22:24.843Z,90.40
2022-10-23T12:26:42.337Z,92.67
2022-10-23T12:31:05.113Z,93.95
2022-10-23T12:35:16.286Z,95.60
2022-10-23T12:39:31.716Z,97.16
2022-10-23T12:43:36.387Z,97.10
2022-10-23T12:51:45.914Z,98.80
2022-10-23T12:56:01.927Z,100.00
2022-10-23T13:00:10.458Z,100.00
2022-10-23T13:04:25.315Z,100.00
2022-10-23T13:08:33.718Z,100.00
2022-10-23T13:12:38.529Z,100.00
2022-10-23T13:16:40.016Z,100.00
2022-10-23T13:20:52.984Z,100.00
2022-10-23T13:24:54.397Z,100.00
2022-10-23T13:28:57.185Z,100.00
2022-10-23T13:32:58.601Z,99.88
2022-10-23T13:37:23.756Z,100.00
2022-10-23T13:41:26.842Z,100.00
2022-10-23T13:45:28.283Z,100.00
2022-10-23T13:49:29.715Z,100.00
2022-10-23T13:53:31.597Z,100.00
2022-10-23T13:57:32.967Z,100.00
2022-10-23T14:01:36.027Z,100.00
2022-10-23T14:05:37.514Z,100.00
2022-10-23T14:09:38.958Z,100.00
2022-10-23T14:13:40.765Z,100.00
2022-10-23T14:17:42.332Z,100.00
2022-10-23T14:21:43.780Z,100.00
2022-10-23T14:25:45.256Z,100.00
2022-10-23T14:29:46.624Z,100.00
2022-10-23T14:34:01.695Z,100.00
2022-10-23T14:38:03.224Z,100.00
2022-10-23T14:42:04.709Z,100.00
2022-10-23T14:46:14.274Z,100.00
2022-10-23T14:50:15.926Z,100.00
2022-10-23T14:54:17.372Z,100.00
2022-10-23T14:58:18.828Z,100.00
2022-10-23T15:02:20.277Z,100.00
2022-10-23T15:06:21.839Z,100.00
2022-10-23T15:10:23.229Z,100.00
2022-10-23T15:14:24.643Z,100.00
2022-10-23T15:18:27.313Z,100.00
2022-10-23T15:22:29.243Z,100.00
2022-10-23T15:26:31.327Z,100.00
2022-10-23T15:30:33.492Z,100.00
2022-10-23T15:34:35.019Z,100.00
2022-10-23T15:38:36.436Z,100.00
2022-10-23T15:42:37.860Z,100.00
2022-10-23T15:46:39.329Z,100.00
2022-10-23T15:50:40.738Z,100.00
2022-10-23T15:54:42.213Z,100.00
2022-10-23T15:58:43.860Z,100.00
2022-10-23T16:02:45.550Z,100.00
2022-10-23T16:06:48.009Z,100.00
2022-10-23T16:10:49.599Z,100.00
2022-10-23T16:14:51.648Z,100.00
2022-10-23T16:18:53.388Z,100.00
2022-10-23T16:22:55.098Z,100.00
2022-10-23T16:26:57.623Z,100.00
2022-10-23T16:30:59.229Z,100.00
2022-10-23T16:35:03.350Z,100.00
2022-10-23T16:39:06.093Z,100.00
2022-10-23T16:43:07.517Z,100.00
2022-10-23T16:47:09.298Z,100.00
2022-10-23T16:51:16.648Z,100.00
2022-10-23T16:55:18.339Z,100.00
2022-10-23T16:59:19.708Z,100.00
2022-10-23T17:03:21.182Z,100.00
2022-10-23T17:07:24.300Z,100.00
2022-10-23T17:11:29.633Z,100.00
2022-10-23T17:15:34.084Z,100.00
2022-10-23T17:19:44.984Z,100.00
2022-10-23T17:23:48.691Z,100.00
2022-10-23T17:27:50.126Z,100.00
2022-10-23T17:31:51.667Z,100.00
2022-10-23T17:35:53.283Z,100.00
2022-10-23T17:39:54.773Z,100.00
2022-10-23T17:43:57.699Z,100.00
2022-10-23T17:47:59.206Z,100.00
2022-10-23T17:52:01.844Z,100.00
2022-10-23T17:56:05.721Z,100.00
2022-10-23T18:00:07.552Z,100.00
2022-10-23T18:04:09.232Z,100.00
2022-10-23T18:08:10.699Z,100.00
2022-10-23T18:12:12.150Z,100.00
2022-10-23T18:16:14.396Z,100.00
2022-10-23T18:20:16.172Z,100.00
2022-10-23T18:28:20.535Z,100.00
2022-10-23T18:32:22.455Z,100.00
2022-10-23T18:36:27.564Z,100.00
2022-10-23T18:40:30.701Z,100.00
2022-10-23T18:44:32.305Z,100.00
2022-10-23T18:48:34.161Z,100.00
2022-10-23T18:52:35.595Z,100.00
2022-10-23T18:56:38.286Z,100.00
2022-10-23T19:00:43.396Z,100.00
2022-10-23T19:04:44.833Z,100.00
2022-10-23T19:08:46.477Z,100.00
2022-10-23T19:12:48.118Z,100.00
2022-10-23T19:17:01.269Z,100.00
2022-10-23T19:21:05.893Z,100.00
2022-10-23T19:25:29.878Z,100.00
2022-10-23T19:29:32.653Z,100.00
2022-10-23T19:33:36.188Z,100.00
2022-10-23T19:37:37.741Z,100.00
2022-10-23T19:41:39.196Z,100.00
2022-10-23T19:45:40.651Z,100.00
2022-10-23T19:49:42.095Z,100.00
2022-10-23T19:53:43.571Z,100.00
2022-10-23T19:57:45.342Z,100.00
2022-10-23T20:01:49.044Z,100.00
2022-10-23T20:05:50.721Z,100.00
2022-10-23T20:09:52.154Z,100.00
2022-10-23T20:13:54.466Z,100.00
2022-10-23T20:17:55.913Z,100.00
2022-10-23T20:21:57.401Z,100.00
2022-10-23T20:26:07.157Z,100.00
2022-10-23T20:30:09.171Z,100.00
2022-10-23T20:34:11.413Z,100.00
2022-10-23T20:38:12.882Z,100.00
2022-10-23T20:42:14.229Z,100.00
2022-10-23T20:46:15.701Z,100.00
2022-10-23T20:50:17.258Z,100.00
2022-10-23T20:54:18.758Z,100.00
2022-10-23T20:58:20.144Z,100.00
2022-10-23T21:02:21.720Z,100.00
2022-10-23T21:06:24.171Z,100.00
2022-10-23T21:10:25.560Z,100.00
2022-10-23T21:14:27.277Z,100.00
2022-10-23T21:18:45.009Z,100.00
2022-10-23T21:22:47.715Z,100.00
2022-10-23T21:26:49.116Z,100.00
2022-10-23T21:30:50.475Z,100.00
2022-10-23T21:34:51.898Z,100.00
2022-10-23T21:38:56.856Z,100.00
2022-10-23T21:42:58.237Z,100.00
2022-10-23T21:46:59.628Z,100.00
2022-10-23T21:51:01.015Z,100.00
2022-10-23T21:55:02.387Z,100.00
2022-10-23T22:03:12.743Z,100.00
2022-10-23T22:07:15.170Z,100.00
2022-10-23T22:11:17.051Z,100.00
2022-10-23T22:15:18.581Z,100.00
2022-10-23T22:19:22.293Z,100.00
2022-10-23T22:23:23.638Z,100.00
2022-10-23T22:27:25.143Z,100.00
2022-10-23T22:31:30.780Z,100.00
2022-10-23T22:35:32.179Z,100.00
2022-10-23T22:39:33.560Z,100.00
2022-10-23T22:43:35.325Z,100.00
2022-10-23T22:47:36.709Z,100.00
2022-10-23T22:51:39.561Z,100.00
2022-10-23T22:55:42.548Z,100.00
2022-10-23T22:59:43.921Z,100.00
2022-10-23T23:03:46.092Z,100.00
2022-10-23T23:07:47.484Z,100.00
2022-10-23T23:11:52.691Z,100.00
2022-10-23T23:15:54.777Z,100.00
2022-10-23T23:19:56.394Z,100.00
2022-10-23T23:23:58.296Z,100.00
2022-10-23T23:27:59.741Z,100.00
2022-10-23T23:32:01.088Z,100.00
2022-10-23T23:36:07.266Z,100.00
2022-10-23T23:40:09.340Z,100.00
2022-10-23T23:44:10.771Z,100.00
2022-10-23T23:48:12.132Z,100.00
2022-10-23T23:52:13.561Z,100.00
2022-10-23T23:56:14.991Z,100.00
